Time;durP1;ratioP1;P1;durP2;ratioP2;P2;SDS_P1;SDS_P2;PMS_P1;PMS_P2;Temp;Humidity;BMP_temperature;BMP_pressure;BME280_temperature;BME280_humidity;BME280_pressure;Samples;Min_cycle;Max_cycle;Signal;HPM_P1;HPM_P2
2022/06/17 00:00:19;;;;;;;1.50;1.40;;;16.70;99.90;;;;;;493778;241;28835;-71
2022/06/17 00:02:20;;;;;;;1.50;1.40;;;16.50;99.90;;;;;;493972;241;28915;-72
2022/06/17 00:04:22;;;;;;;1.70;1.60;;;16.40;99.90;;;;;;494035;241;28797;-71
2022/06/17 00:06:23;;;;;;;1.53;1.43;;;16.30;99.90;;;;;;494034;241;29280;-72
2022/06/17 00:08:24;;;;;;;1.40;1.40;;;16.20;99.90;;;;;;493952;241;30036;-71
2022/06/17 00:10:25;;;;;;;1.70;1.60;;;16.30;99.90;;;;;;494061;241;29263;-71
2022/06/17 00:12:27;;;;;;;3.87;1.70;;;16.30;99.90;;;;;;494015;241;28841;-72
2022/06/17 00:14:31;;;;;;;1.80;1.70;;;16.30;99.90;;;;;;494030;241;28875;-71
2022/06/17 00:16:29;;;;;;;1.47;1.47;;;16.30;99.90;;;;;;493773;241;28826;-71
2022/06/17 00:18:30;;;;;;;2.20;2.00;;;16.30;99.90;;;;;;494043;241;28847;-71
2022/06/17 00:20:34;;;;;;;3.00;2.00;;;16.30;99.90;;;;;;494051;241;28843;-71
2022/06/17 00:22:33;;;;;;;3.33;1.80;;;16.40;99.90;;;;;;493846;241;28858;-72
2022/06/17 00:24:34;;;;;;;2.47;1.70;;;16.40;99.90;;;;;;494022;241;28812;-71
2022/06/17 00:26:36;;;;;;;1.90;1.80;;;16.40;99.90;;;;;;494026;241;28858;-71
2022/06/17 00:28:37;;;;;;;1.83;1.73;;;16.40;99.90;;;;;;494050;241;28934;-75
2022/06/17 00:30:38;;;;;;;2.60;2.40;;;16.50;99.90;;;;;;494046;241;29254;-71
2022/06/17 00:32:39;;;;;;;1.93;1.70;;;16.40;99.90;;;;;;494042;241;29305;-72
2022/06/17 00:34:41;;;;;;;2.47;2.27;;;16.50;99.90;;;;;;494045;241;29451;-71
2022/06/17 00:36:42;;;;;;;2.30;2.00;;;16.50;99.90;;;;;;494016;241;28930;-71
2022/06/17 00:38:43;;;;;;;2.37;2.20;;;16.50;99.90;;;;;;494049;237;28840;-73
2022/06/17 00:40:44;;;;;;;2.07;1.97;;;16.50;99.90;;;;;;494001;241;28807;-72
2022/06/17 00:42:46;;;;;;;2.17;1.97;;;16.60;99.90;;;;;;494031;241;28828;-71
2022/06/17 00:44:47;;;;;;;2.30;2.00;;;16.60;99.90;;;;;;494008;241;28891;-71
2022/06/17 00:46:48;;;;;;;4.13;2.20;;;16.60;99.90;;;;;;494023;241;28874;-71
2022/06/17 00:48:49;;;;;;;3.57;2.30;;;16.60;99.90;;;;;;493977;241;29207;-73
2022/06/17 00:50:51;;;;;;;2.20;2.00;;;16.60;99.90;;;;;;494017;241;28844;-71
2022/06/17 00:52:52;;;;;;;5.60;2.63;;;16.60;99.90;;;;;;494020;241;28862;-72
2022/06/17 00:54:53;;;;;;;2.83;2.10;;;16.60;99.90;;;;;;493849;241;29277;-71
2022/06/17 00:56:54;;;;;;;2.27;2.07;;;16.60;99.90;;;;;;494028;241;29431;-72
2022/06/17 00:58:56;;;;;;;1.97;1.87;;;16.60;99.90;;;;;;494016;241;29427;-73
2022/06/17 01:00:57;;;;;;;2.93;2.30;;;16.60;99.90;;;;;;494020;241;29368;-71
2022/06/17 01:02:58;;;;;;;2.33;2.13;;;16.60;99.90;;;;;;494037;241;28916;-72
2022/06/17 01:04:59;;;;;;;3.93;2.63;;;16.60;99.90;;;;;;494039;241;28787;-71
2022/06/17 01:07:01;;;;;;;2.20;2.10;;;16.60;99.90;;;;;;494017;241;28829;-71
2022/06/17 01:11:21;;;;;;;2.07;1.97;;;16.50;99.90;;;;;;494060;241;28919;-71
2022/06/17 01:13:23;;;;;;;1.97;1.87;;;16.60;99.90;;;;;;494039;241;28905;-71
2022/06/17 01:15:24;;;;;;;2.10;1.90;;;16.60;99.90;;;;;;493963;241;28810;-71
2022/06/17 01:17:25;;;;;;;6.03;2.00;;;16.60;99.90;;;;;;494026;241;28816;-71
2022/06/17 01:19:26;;;;;;;2.27;2.07;;;16.50;99.90;;;;;;494031;241;29324;-72
2022/06/17 01:21:28;;;;;;;2.10;2.00;;;16.50;99.90;;;;;;494018;241;29553;-72
2022/06/17 01:23:29;;;;;;;2.10;2.00;;;16.50;99.90;;;;;;494039;241;29397;-72
2022/06/17 01:25:30;;;;;;;1.97;1.87;;;16.40;99.90;;;;;;493922;241;30131;-71
2022/06/17 01:27:31;;;;;;;2.40;2.20;;;16.40;99.90;;;;;;494040;241;28844;-71
2022/06/17 01:29:34;;;;;;;3.23;1.90;;;16.40;99.90;;;;;;494027;241;28951;-71
2022/06/17 01:31:34;;;;;;;2.63;2.17;;;16.40;99.90;;;;;;493860;241;28785;-71
2022/06/17 01:33:35;;;;;;;5.03;2.63;;;16.40;99.90;;;;;;494005;241;28853;-71
2022/06/17 01:35:36;;;;;;;2.00;1.90;;;16.40;99.90;;;;;;494012;241;28829;-71
2022/06/17 01:37:38;;;;;;;2.00;1.90;;;16.40;99.90;;;;;;494032;241;28801;-71
2022/06/17 01:39:41;;;;;;;2.17;2.07;;;16.40;99.90;;;;;;494031;241;28843;-71
2022/06/17 01:41:40;;;;;;;3.17;2.40;;;16.30;99.90;;;;;;493876;239;28848;-71
2022/06/17 01:43:41;;;;;;;2.23;2.13;;;16.30;99.90;;;;;;493969;241;29371;-71
2022/06/17 01:45:43;;;;;;;2.00;1.90;;;16.30;99.90;;;;;;494035;241;29392;-74
2022/06/17 01:47:44;;;;;;;2.77;2.57;;;16.30;99.90;;;;;;494027;241;29335;-71
2022/06/17 01:49:45;;;;;;;2.60;2.27;;;16.30;99.90;;;;;;494017;241;29396;-73
2022/06/17 01:51:46;;;;;;;2.37;2.17;;;16.30;99.90;;;;;;494032;241;28795;-71
2022/06/17 01:53:48;;;;;;;1.77;1.67;;;16.20;99.90;;;;;;493829;241;28857;-71
2022/06/17 01:55:49;;;;;;;2.20;2.10;;;16.20;99.90;;;;;;494028;241;28901;-71
2022/06/17 01:57:50;;;;;;;1.60;1.50;;;16.20;99.90;;;;;;494026;241;28889;-71
2022/06/17 01:59:52;;;;;;;1.83;1.73;;;16.20;99.90;;;;;;494025;241;28833;-71
2022/06/17 02:01:53;;;;;;;1.73;1.63;;;16.20;99.90;;;;;;494017;241;28804;-72
2022/06/17 02:03:54;;;;;;;1.40;1.40;;;16.20;99.90;;;;;;493994;241;28858;-71
2022/06/17 02:05:55;;;;;;;1.40;1.40;;;16.20;99.90;;;;;;494024;241;28855;-72
2022/06/17 02:07:57;;;;;;;2.30;1.57;;;16.10;99.90;;;;;;494024;241;28804;-71
2022/06/17 02:09:58;;;;;;;1.60;1.50;;;16.10;99.90;;;;;;493944;241;29372;-71
2022/06/17 02:12:01;;;;;;;1.60;1.50;;;16.00;99.90;;;;;;493905;241;29354;-72
2022/06/17 02:14:06;;;;;;;1.50;1.40;;;16.00;99.90;;;;;;493905;241;29333;-71
2022/06/17 02:16:01;;;;;;;1.73;1.63;;;15.90;99.90;;;;;;493487;241;28927;-74
2022/06/17 02:18:03;;;;;;;1.60;1.50;;;15.80;99.90;;;;;;494009;241;28803;-71
2022/06/17 02:20:04;;;;;;;1.83;1.73;;;15.70;99.90;;;;;;494021;241;28923;-72
2022/06/17 02:22:05;;;;;;;1.63;1.53;;;15.70;99.90;;;;;;494004;241;28858;-72
2022/06/17 02:24:06;;;;;;;1.63;1.63;;;15.60;99.90;;;;;;494007;241;28833;-71
2022/06/17 02:26:08;;;;;;;1.70;1.60;;;15.60;99.90;;;;;;494009;240;28962;-73
2022/06/17 02:28:09;;;;;;;1.50;1.50;;;15.40;99.90;;;;;;494006;241;28811;-71
2022/06/17 02:30:10;;;;;;;1.70;1.60;;;15.40;99.90;;;;;;494015;241;28869;-71
2022/06/17 02:32:11;;;;;;;1.80;1.70;;;15.30;99.90;;;;;;494014;241;29249;-71
2022/06/17 02:34:13;;;;;;;1.80;1.70;;;15.00;99.90;;;;;;494020;241;29323;-71
2022/06/17 02:36:14;;;;;;;1.50;1.50;;;14.90;99.90;;;;;;494021;241;29452;-74
2022/06/17 02:38:15;;;;;;;1.70;1.60;;;14.90;99.90;;;;;;494048;241;29271;-71
2022/06/17 02:40:16;;;;;;;1.60;1.50;;;14.80;99.90;;;;;;494043;241;28849;-72
2022/06/17 02:42:18;;;;;;;1.77;1.67;;;14.80;99.90;;;;;;493892;241;28826;-71
2022/06/17 02:44:19;;;;;;;1.47;1.47;;;14.70;99.90;;;;;;494067;241;28925;-71
2022/06/17 02:46:20;;;;;;;2.43;1.80;;;14.70;99.90;;;;;;494070;241;29179;-74
2022/06/17 02:48:21;;;;;;;1.77;1.67;;;14.70;99.90;;;;;;494060;241;28790;-71
2022/06/17 02:50:23;;;;;;;1.83;1.73;;;14.60;99.90;;;;;;494019;241;28830;-72
2022/06/17 02:52:24;;;;;;;2.03;1.90;;;14.50;99.90;;;;;;494048;241;28484;-71
2022/06/17 02:54:25;;;;;;;1.77;1.67;;;14.50;99.90;;;;;;494018;241;28931;-71
2022/06/17 02:56:27;;;;;;;1.77;1.70;;;14.50;99.90;;;;;;494018;241;29163;-74
2022/06/17 02:58:28;;;;;;;1.83;1.73;;;14.50;99.90;;;;;;493905;241;29303;-71
2022/06/17 03:00:29;;;;;;;1.80;1.70;;;14.50;99.90;;;;;;494004;241;29313;-71
2022/06/17 03:02:30;;;;;;;2.07;1.90;;;14.50;99.90;;;;;;493918;241;29305;-71
2022/06/17 03:04:31;;;;;;;1.90;1.80;;;14.50;99.90;;;;;;493997;241;28932;-71
2022/06/17 03:06:33;;;;;;;2.20;2.10;;;14.60;99.90;;;;;;494015;240;28933;-73
2022/06/17 03:08:34;;;;;;;1.90;1.80;;;14.50;99.90;;;;;;494033;241;28795;-71
2022/06/17 03:10:35;;;;;;;1.97;1.87;;;14.50;99.90;;;;;;494007;241;28819;-72
2022/06/17 03:12:36;;;;;;;1.70;1.60;;;14.40;99.90;;;;;;494020;241;28787;-70
2022/06/17 03:14:38;;;;;;;1.80;1.70;;;14.30;99.90;;;;;;494026;241;28826;-71
2022/06/17 03:16:39;;;;;;;1.70;1.60;;;14.30;99.90;;;;;;494020;241;28906;-74
2022/06/17 03:18:40;;;;;;;1.80;1.70;;;14.20;99.90;;;;;;494013;241;28850;-71
2022/06/17 03:20:42;;;;;;;2.00;1.90;;;14.20;99.90;;;;;;494010;239;28867;-72
2022/06/17 03:22:43;;;;;;;2.90;1.73;;;14.00;99.90;;;;;;494010;241;29244;-71
2022/06/17 03:24:44;;;;;;;1.90;1.80;;;13.90;99.90;;;;;;494028;241;29301;-71
2022/06/17 03:26:45;;;;;;;1.43;1.43;;;13.90;99.90;;;;;;493991;241;30023;-71
2022/06/17 03:28:48;;;;;;;1.80;1.70;;;13.90;99.90;;;;;;494028;241;28865;-71
2022/06/17 03:30:48;;;;;;;1.80;1.70;;;13.90;99.90;;;;;;493921;241;28437;-72
2022/06/17 03:32:49;;;;;;;1.70;1.60;;;13.90;99.90;;;;;;493999;241;28587;-71
2022/06/17 03:34:50;;;;;;;1.80;1.70;;;13.80;99.90;;;;;;493991;241;28442;-71
2022/06/17 03:36:52;;;;;;;1.80;1.70;;;13.80;99.90;;;;;;493955;241;28516;-71
2022/06/17 03:38:53;;;;;;;1.80;1.70;;;13.90;99.90;;;;;;493982;241;28881;-71
2022/06/17 03:40:54;;;;;;;1.93;1.83;;;13.90;99.90;;;;;;494013;241;28961;-72
2022/06/17 03:42:55;;;;;;;1.83;1.73;;;14.00;99.90;;;;;;494000;241;28840;-71
2022/06/17 03:44:57;;;;;;;2.10;2.00;;;14.00;99.90;;;;;;494030;241;29511;-71
2022/06/17 03:46:58;;;;;;;1.67;1.60;;;13.90;99.90;;;;;;493895;241;31129;-71
2022/06/17 03:48:59;;;;;;;1.60;1.50;;;13.90;99.90;;;;;;494008;241;28580;-71
2022/06/17 03:51:00;;;;;;;1.80;1.70;;;13.90;99.90;;;;;;494019;241;28301;-72
2022/06/17 03:53:02;;;;;;;1.73;1.63;;;13.90;99.90;;;;;;493997;241;28345;-71
2022/06/17 03:55:03;;;;;;;1.57;1.50;;;13.90;99.90;;;;;;493986;241;28542;-71
2022/06/17 03:57:04;;;;;;;1.67;1.43;;;13.90;99.90;;;;;;494041;241;28559;-71
2022/06/17 03:59:05;;;;;;;1.70;1.60;;;13.90;99.90;;;;;;494112;241;28804;-71
2022/06/17 04:01:07;;;;;;;1.80;1.70;;;13.80;99.90;;;;;;494038;241;28485;-72
2022/06/17 04:03:08;;;;;;;1.87;1.77;;;13.80;99.90;;;;;;493993;241;28788;-71
2022/06/17 04:05:09;;;;;;;1.70;1.60;;;13.70;99.90;;;;;;494061;241;28609;-71
2022/06/17 04:07:11;;;;;;;1.80;1.70;;;13.60;99.90;;;;;;494037;241;29380;-71
2022/06/17 04:09:12;;;;;;;1.73;1.63;;;13.60;99.90;;;;;;494007;241;29246;-71
2022/06/17 04:11:13;;;;;;;1.90;1.70;;;13.50;99.90;;;;;;493911;241;29336;-72
2022/06/17 04:13:14;;;;;;;2.60;1.80;;;13.40;99.90;;;;;;494031;241;28569;-71
2022/06/17 04:15:15;;;;;;;2.00;1.90;;;13.40;99.90;;;;;;493981;241;28550;-71
2022/06/17 04:17:17;;;;;;;1.77;1.63;;;13.30;99.90;;;;;;493980;241;28853;-71
2022/06/17 04:19:18;;;;;;;2.00;1.90;;;13.20;99.90;;;;;;494000;241;28798;-71
2022/06/17 04:21:19;;;;;;;1.90;1.80;;;13.20;99.90;;;;;;494019;241;28335;-73
2022/06/17 04:23:20;;;;;;;2.37;2.20;;;13.20;99.90;;;;;;493990;241;28216;-71
2022/06/17 04:25:22;;;;;;;2.10;2.00;;;13.30;99.90;;;;;;493996;241;28483;-71
2022/06/17 04:27:23;;;;;;;2.70;2.00;;;13.50;99.90;;;;;;494016;241;28485;-71
2022/06/17 04:29:24;;;;;;;2.07;1.97;;;13.60;99.90;;;;;;494022;241;28782;-71
2022/06/17 04:31:26;;;;;;;1.93;1.83;;;13.60;99.90;;;;;;494004;241;29298;-72
2022/06/17 04:33:27;;;;;;;2.00;1.90;;;13.70;99.90;;;;;;493870;241;29232;-71
2022/06/17 04:35:28;;;;;;;1.80;1.70;;;13.70;99.90;;;;;;493983;241;30112;-72
2022/06/17 04:37:29;;;;;;;2.37;2.27;;;13.80;99.90;;;;;;494004;241;29508;-71
2022/06/17 04:39:30;;;;;;;2.60;2.50;;;14.00;99.90;;;;;;493857;241;28917;-71
2022/06/17 04:41:32;;;;;;;2.30;2.20;;;14.10;99.90;;;;;;494002;241;28870;-72
2022/06/17 04:43:33;;;;;;;2.60;2.50;;;14.10;99.90;;;;;;493679;241;28779;-71
2022/06/17 04:45:34;;;;;;;2.20;2.10;;;14.20;99.90;;;;;;494011;241;28858;-72
2022/06/17 04:47:35;;;;;;;2.83;2.30;;;14.40;99.90;;;;;;494027;241;28830;-71
2022/06/17 04:49:37;;;;;;;2.30;2.20;;;14.50;99.90;;;;;;494053;241;28887;-71
2022/06/17 04:51:38;;;;;;;2.30;2.20;;;14.50;99.90;;;;;;494031;241;28911;-72
2022/06/17 04:53:42;;;;;;;2.07;2.00;;;14.50;99.90;;;;;;494013;241;28878;-71
2022/06/17 04:55:40;;;;;;;2.10;2.00;;;14.50;99.90;;;;;;493805;241;29362;-71
2022/06/17 04:57:42;;;;;;;2.07;1.97;;;14.50;99.90;;;;;;494021;241;29570;-73
2022/06/17 04:59:44;;;;;;;2.20;2.10;;;14.40;99.90;;;;;;493945;241;29247;-71
2022/06/17 05:01:44;;;;;;;2.00;1.90;;;14.50;99.90;;;;;;493913;241;29263;-72
2022/06/17 05:03:45;;;;;;;2.10;2.00;;;14.40;99.90;;;;;;494042;241;28893;-71
2022/06/17 05:05:47;;;;;;;2.03;1.93;;;14.40;99.90;;;;;;494016;241;28834;-71
2022/06/17 05:07:48;;;;;;;2.30;2.20;;;14.40;99.90;;;;;;494015;241;28805;-71
2022/06/17 05:09:49;;;;;;;2.40;2.13;;;14.50;99.90;;;;;;494046;241;28877;-71
2022/06/17 05:11:50;;;;;;;2.17;2.07;;;14.60;99.90;;;;;;494041;241;28843;-72
2022/06/17 05:13:52;;;;;;;2.10;2.00;;;14.60;99.90;;;;;;494037;241;28802;-71
2022/06/17 05:15:53;;;;;;;2.30;2.20;;;14.70;99.90;;;;;;494012;241;28848;-72
2022/06/17 05:17:55;;;;;;;2.13;2.03;;;14.80;99.90;;;;;;494052;241;29505;-71
2022/06/17 05:19:55;;;;;;;2.00;1.90;;;14.80;99.90;;;;;;493822;241;29334;-72
2022/06/17 05:21:57;;;;;;;1.97;1.90;;;14.80;99.90;;;;;;494068;241;29305;-72
2022/06/17 05:23:58;;;;;;;1.93;1.90;;;14.90;99.90;;;;;;494054;241;29275;-71
2022/06/17 05:25:59;;;;;;;2.20;2.03;;;14.90;99.90;;;;;;493644;241;28822;-71
2022/06/17 05:28:00;;;;;;;2.23;2.13;;;14.90;99.90;;;;;;494058;241;28837;-71
2022/06/17 05:30:02;;;;;;;2.10;1.97;;;14.90;99.90;;;;;;494013;241;28786;-71
2022/06/17 05:32:03;;;;;;;2.60;2.50;;;15.00;99.90;;;;;;493998;241;28833;-72
2022/06/17 05:34:04;;;;;;;2.07;1.97;;;15.00;99.90;;;;;;493902;241;29275;-71
2022/06/17 05:36:05;;;;;;;2.00;1.90;;;15.10;99.90;;;;;;493684;241;28837;-71
2022/06/17 05:38:07;;;;;;;2.67;2.30;;;15.10;99.90;;;;;;494023;241;28844;-71
2022/06/17 05:40:08;;;;;;;2.33;2.23;;;15.10;99.90;;;;;;494032;241;28789;-72
2022/06/17 05:42:09;;;;;;;2.40;2.30;;;15.10;99.90;;;;;;494018;241;29423;-72
2022/06/17 05:44:10;;;;;;;2.33;2.23;;;15.20;99.90;;;;;;494010;241;29302;-71
2022/06/17 05:46:12;;;;;;;2.27;2.17;;;15.30;99.90;;;;;;493829;241;29305;-72
2022/06/17 05:48:13;;;;;;;2.10;2.00;;;15.40;99.90;;;;;;494039;241;30063;-72
2022/06/17 05:50:14;;;;;;;2.20;2.10;;;15.50;99.90;;;;;;494007;241;28879;-72
2022/06/17 05:52:15;;;;;;;2.33;2.23;;;15.60;99.90;;;;;;494003;241;28811;-72
2022/06/17 05:54:17;;;;;;;2.73;2.53;;;15.60;99.90;;;;;;494025;241;28779;-71
2022/06/17 05:56:18;;;;;;;2.50;2.40;;;15.70;99.90;;;;;;494007;241;28831;-71
2022/06/17 05:58:19;;;;;;;2.30;2.20;;;15.70;99.90;;;;;;494039;241;28923;-71
2022/06/17 06:00:21;;;;;;;2.57;2.47;;;15.80;99.90;;;;;;494052;241;28862;-72
2022/06/17 06:02:22;;;;;;;2.80;2.60;;;15.90;99.90;;;;;;494021;241;28919;-73
2022/06/17 06:04:23;;;;;;;2.20;2.10;;;16.10;99.90;;;;;;493978;241;28883;-71
2022/06/17 06:06:24;;;;;;;3.30;2.80;;;16.30;99.90;;;;;;493971;241;29301;-71
2022/06/17 06:08:25;;;;;;;2.20;2.10;;;16.50;99.90;;;;;;493896;241;29491;-74
2022/06/17 06:10:27;;;;;;;2.50;2.40;;;16.80;99.90;;;;;;493965;241;29273;-72
2022/06/17 06:12:53;;;;;;;2.30;2.10;;;17.00;99.90;;;;;;494031;241;29429;-72
2022/06/17 06:14:29;;;;;;;2.00;1.90;;;17.20;99.90;;;;;;492257;241;28795;-72
2022/06/17 06:16:30;;;;;;;1.90;1.80;;;17.40;99.90;;;;;;493876;241;28944;-72
2022/06/17 06:18:32;;;;;;;1.70;1.70;;;17.50;99.90;;;;;;494003;241;28834;-72
2022/06/17 06:20:33;;;;;;;1.73;1.73;;;17.60;99.90;;;;;;494055;241;28839;-71
2022/06/17 06:22:34;;;;;;;2.40;2.30;;;17.60;99.90;;;;;;493950;241;28984;-72
2022/06/17 06:24:35;;;;;;;2.20;2.10;;;17.90;99.90;;;;;;493985;239;28799;-71
2022/06/17 06:26:37;;;;;;;2.23;2.13;;;18.00;99.90;;;;;;493935;241;29205;-71
2022/06/17 06:28:38;;;;;;;2.20;2.10;;;18.10;99.90;;;;;;494040;241;28894;-75
2022/06/17 06:30:39;;;;;;;2.40;2.30;;;18.10;99.90;;;;;;494015;241;29307;-71
2022/06/17 06:32:40;;;;;;;2.50;2.40;;;18.10;99.90;;;;;;493999;241;29357;-72
2022/06/17 06:34:42;;;;;;;2.70;2.50;;;18.30;99.90;;;;;;494019;241;29247;-71
2022/06/17 06:36:43;;;;;;;2.57;2.40;;;18.40;99.90;;;;;;493998;241;29385;-72
2022/06/17 06:38:44;;;;;;;2.60;2.40;;;18.50;99.90;;;;;;494047;241;28848;-74
2022/06/17 06:40:46;;;;;;;2.30;2.20;;;18.50;99.90;;;;;;494050;241;28875;-71
2022/06/17 06:42:47;;;;;;;2.00;1.90;;;18.50;99.90;;;;;;494047;241;28825;-72
2022/06/17 06:44:48;;;;;;;2.40;2.20;;;18.50;99.90;;;;;;494041;241;28883;-71
2022/06/17 06:46:49;;;;;;;2.27;2.17;;;18.60;99.90;;;;;;494003;241;28902;-71
2022/06/17 06:48:50;;;;;;;2.20;2.10;;;18.70;99.90;;;;;;494073;241;28896;-74
2022/06/17 06:50:52;;;;;;;3.20;2.50;;;18.90;99.90;;;;;;494046;241;28804;-72
2022/06/17 06:52:53;;;;;;;2.43;2.23;;;18.80;99.90;;;;;;494070;241;28884;-72
2022/06/17 06:54:54;;;;;;;2.10;2.00;;;18.90;99.90;;;;;;493913;241;28796;-71
2022/06/17 06:56:59;;;;;;;2.37;2.23;;;18.90;99.90;;;;;;493984;241;29291;-72
2022/06/17 06:58:57;;;;;;;3.00;2.20;;;19.00;99.90;;;;;;493704;241;29323;-74
2022/06/17 07:00:58;;;;;;;2.30;2.20;;;19.10;99.90;;;;;;494019;241;29347;-72
2022/06/17 07:02:59;;;;;;;2.23;2.10;;;19.10;99.90;;;;;;493896;241;28821;-72
2022/06/17 07:05:01;;;;;;;2.10;2.00;;;19.10;99.90;;;;;;494010;241;28870;-72
2022/06/17 07:07:02;;;;;;;2.10;2.00;;;19.10;99.90;;;;;;493792;241;28858;-72
2022/06/17 07:09:03;;;;;;;1.97;1.87;;;19.20;99.90;;;;;;493983;241;28829;-76
2022/06/17 07:11:05;;;;;;;2.00;1.90;;;19.10;99.90;;;;;;494001;241;28893;-72
2022/06/17 07:13:08;;;;;;;1.93;1.83;;;19.20;99.90;;;;;;494038;241;28834;-72
2022/06/17 07:15:10;;;;;;;2.93;2.00;;;19.30;99.90;;;;;;494010;241;29420;-72
2022/06/17 07:17:11;;;;;;;2.90;2.13;;;19.30;99.90;;;;;;493818;241;28970;-72
2022/06/17 07:19:12;;;;;;;2.47;2.27;;;19.50;99.90;;;;;;493793;241;28836;-72
2022/06/17 07:21:14;;;;;;;2.00;1.90;;;19.50;99.90;;;;;;493848;241;28833;-72
2022/06/17 07:23:15;;;;;;;2.63;2.20;;;19.60;99.90;;;;;;493904;241;28783;-72
2022/06/17 07:25:16;;;;;;;2.10;2.00;;;19.60;99.90;;;;;;493991;241;28819;-72
2022/06/17 07:27:18;;;;;;;2.40;2.20;;;19.60;99.90;;;;;;494034;241;28797;-71
2022/06/17 07:29:18;;;;;;;2.33;2.23;;;19.70;99.90;;;;;;494049;241;28894;-73
2022/06/17 07:31:20;;;;;;;1.90;1.80;;;19.70;99.90;;;;;;494036;241;28833;-73
2022/06/17 07:33:21;;;;;;;2.93;2.40;;;19.70;99.90;;;;;;493973;241;28913;-71
2022/06/17 07:35:22;;;;;;;2.37;2.17;;;19.80;99.90;;;;;;493987;241;29313;-72
2022/06/17 07:39:55;;;;;;;2.33;2.23;;;19.90;99.90;;;;;;494026;241;28787;-71
2022/06/17 07:41:56;;;;;;;2.40;1.93;;;20.00;99.90;;;;;;493944;241;28915;-72
2022/06/17 07:43:58;;;;;;;1.80;1.70;;;20.10;99.90;;;;;;494034;237;28965;-73
2022/06/17 07:45:59;;;;;;;1.80;1.70;;;20.10;99.90;;;;;;493932;241;28857;-72
2022/06/17 07:48:02;;;;;;;3.37;2.07;;;20.10;99.90;;;;;;494006;241;28884;-73
2022/06/17 07:50:02;;;;;;;1.90;1.80;;;20.10;99.90;;;;;;493932;241;28835;-72
2022/06/17 07:52:03;;;;;;;2.10;1.80;;;20.10;99.90;;;;;;493935;241;28930;-72
2022/06/17 07:54:04;;;;;;;1.80;1.70;;;20.20;99.90;;;;;;493917;241;29193;-75
2022/06/17 07:56:05;;;;;;;1.70;1.60;;;20.30;99.90;;;;;;494015;241;28822;-71
2022/06/17 07:58:06;;;;;;;1.67;1.57;;;20.20;99.90;;;;;;494026;241;29350;-73
2022/06/17 08:00:08;;;;;;;1.80;1.70;;;20.20;99.90;;;;;;493883;241;29340;-72
2022/06/17 08:02:09;;;;;;;1.77;1.67;;;20.30;99.90;;;;;;494018;241;29300;-73
2022/06/17 08:04:10;;;;;;;2.13;1.90;;;20.30;99.90;;;;;;493956;241;29465;-75
2022/06/17 08:06:13;;;;;;;2.20;2.00;;;20.30;99.90;;;;;;494019;241;28835;-72
2022/06/17 08:08:13;;;;;;;2.10;2.00;;;20.60;99.90;;;;;;493922;241;28848;-72
2022/06/17 08:10:14;;;;;;;2.00;1.80;;;20.60;99.90;;;;;;494030;241;28882;-72
2022/06/17 08:12:15;;;;;;;1.93;1.83;;;20.60;99.90;;;;;;493953;241;28814;-72
2022/06/17 08:14:17;;;;;;;1.80;1.70;;;20.50;99.90;;;;;;494021;241;29382;-75
2022/06/17 08:16:18;;;;;;;1.90;1.80;;;20.60;99.90;;;;;;494008;241;28891;-72
2022/06/17 08:18:19;;;;;;;2.80;1.90;;;20.60;99.90;;;;;;494005;241;28823;-72
2022/06/17 08:20:20;;;;;;;2.30;2.10;;;20.70;99.90;;;;;;494031;241;29232;-72
2022/06/17 08:22:22;;;;;;;2.07;1.87;;;20.80;99.90;;;;;;493982;241;29415;-73
2022/06/17 08:24:23;;;;;;;2.33;2.13;;;20.80;99.90;;;;;;493909;241;29342;-75
2022/06/17 08:26:24;;;;;;;2.40;2.20;;;20.80;99.90;;;;;;493987;241;29267;-72
2022/06/17 08:28:25;;;;;;;2.00;1.90;;;20.80;99.90;;;;;;494044;241;28823;-72
2022/06/17 08:30:27;;;;;;;2.27;2.17;;;21.00;99.90;;;;;;494072;241;28780;-72
2022/06/17 08:32:46;;;;;;;2.33;1.80;;;21.00;99.90;;;;;;494023;241;28819;-72
2022/06/17 08:34:47;;;;;;;2.43;2.23;;;20.80;99.90;;;;;;494058;241;29310;-73
2022/06/17 08:36:48;;;;;;;1.83;1.73;;;21.00;99.90;;;;;;494051;241;29252;-72
2022/06/17 08:38:50;;;;;;;1.87;1.77;;;21.10;99.90;;;;;;494083;241;28819;-72
2022/06/17 08:40:51;;;;;;;2.00;1.80;;;21.10;99.90;;;;;;494024;241;28883;-72
2022/06/17 08:42:52;;;;;;;2.00;1.90;;;21.20;99.90;;;;;;494043;241;28937;-72
2022/06/17 08:44:53;;;;;;;2.43;2.33;;;21.30;99.90;;;;;;494082;241;28810;-74
2022/06/17 08:46:55;;;;;;;2.40;2.30;;;21.40;99.90;;;;;;494031;241;28788;-72
2022/06/17 08:48:56;;;;;;;2.87;2.00;;;21.30;99.90;;;;;;494038;241;28933;-72
2022/06/17 08:50:57;;;;;;;2.40;2.20;;;21.40;99.90;;;;;;493934;241;28884;-72
2022/06/17 08:52:58;;;;;;;2.10;2.00;;;21.40;99.90;;;;;;493958;241;28857;-72
2022/06/17 08:55:00;;;;;;;2.60;2.43;;;21.60;99.90;;;;;;493991;241;28834;-74
2022/06/17 08:57:01;;;;;;;2.20;2.10;;;21.70;99.90;;;;;;494028;241;29323;-72
2022/06/17 08:59:02;;;;;;;1.87;1.77;;;21.70;99.90;;;;;;493964;241;29463;-72
2022/06/17 09:01:03;;;;;;;1.83;1.73;;;21.60;99.90;;;;;;494026;241;29257;-71
2022/06/17 09:03:05;;;;;;;1.70;1.60;;;21.60;99.90;;;;;;493902;241;28834;-72
2022/06/17 09:05:06;;;;;;;3.90;1.90;;;21.80;99.90;;;;;;494067;241;28847;-74
2022/06/17 09:07:07;;;;;;;1.80;1.70;;;21.90;99.90;;;;;;494038;241;28880;-73
2022/06/17 09:09:08;;;;;;;2.90;1.80;;;22.00;99.90;;;;;;494028;241;28814;-73
2022/06/17 09:11:10;;;;;;;2.07;1.60;;;22.00;99.90;;;;;;494023;241;28784;-72
2022/06/17 09:13:11;;;;;;;1.60;1.50;;;22.20;99.90;;;;;;493979;241;29030;-73
2022/06/17 09:15:13;;;;;;;1.80;1.67;;;22.20;99.90;;;;;;493972;241;29259;-74
2022/06/17 09:17:13;;;;;;;1.70;1.60;;;22.20;99.90;;;;;;493952;241;28885;-72
2022/06/17 09:19:15;;;;;;;2.37;1.90;;;22.10;99.90;;;;;;493914;241;28937;-72
2022/06/17 09:21:16;;;;;;;2.93;1.93;;;22.00;99.90;;;;;;494022;241;29248;-72
2022/06/17 09:23:17;;;;;;;1.87;1.77;;;22.00;99.90;;;;;;493966;241;29305;-72
2022/06/17 09:25:19;;;;;;;1.90;1.80;;;22.00;99.90;;;;;;494064;241;29462;-74
2022/06/17 09:27:20;;;;;;;2.40;1.73;;;22.00;99.90;;;;;;494047;241;28865;-72
2022/06/17 09:29:21;;;;;;;1.40;1.30;;;22.20;99.90;;;;;;490189;241;36005;-72
2022/06/17 09:31:22;;;;;;;1.97;1.80;;;22.40;99.90;;;;;;493921;241;28873;-72
2022/06/17 09:33:23;;;;;;;1.80;1.70;;;22.50;99.90;;;;;;494037;241;28805;-72
2022/06/17 09:35:25;;;;;;;2.00;1.90;;;22.60;99.90;;;;;;493845;239;28818;-74
2022/06/17 09:37:26;;;;;;;2.17;1.50;;;22.60;99.90;;;;;;494030;241;28901;-72
2022/06/17 09:39:27;;;;;;;1.60;1.50;;;22.50;99.90;;;;;;493990;241;28917;-73
2022/06/17 09:41:28;;;;;;;1.80;1.70;;;22.70;99.90;;;;;;493976;241;28815;-72
2022/06/17 09:43:30;;;;;;;1.67;1.57;;;22.80;99.90;;;;;;494025;241;28798;-73
2022/06/17 09:45:31;;;;;;;1.40;1.40;;;22.70;99.90;;;;;;494037;241;29339;-73
2022/06/17 09:47:32;;;;;;;2.10;1.77;;;22.60;99.90;;;;;;494028;241;29228;-73
2022/06/17 09:49:33;;;;;;;1.47;1.40;;;22.70;99.90;;;;;;493911;241;29439;-73
2022/06/17 09:51:35;;;;;;;2.07;1.97;;;22.70;99.90;;;;;;494055;241;29334;-72
2022/06/17 09:53:36;;;;;;;1.73;1.63;;;22.60;99.90;;;;;;494056;241;28794;-72
2022/06/17 09:55:37;;;;;;;1.60;1.50;;;22.50;99.90;;;;;;494003;241;28815;-74
2022/06/17 09:57:38;;;;;;;1.60;1.50;;;22.50;99.90;;;;;;494023;241;28782;-72
2022/06/17 09:59:40;;;;;;;1.70;1.40;;;22.80;99.90;;;;;;494043;241;28827;-73
2022/06/17 10:01:41;;;;;;;1.53;1.40;;;22.70;99.90;;;;;;494036;241;28924;-72
2022/06/17 10:03:42;;;;;;;1.60;1.50;;;22.80;99.90;;;;;;493911;241;28823;-72
2022/06/17 10:05:43;;;;;;;2.77;1.60;;;22.90;99.90;;;;;;494051;241;28861;-74
2022/06/17 10:07:45;;;;;;;1.67;1.57;;;22.90;99.90;;;;;;493852;241;28985;-72
2022/06/17 10:09:46;;;;;;;1.60;1.50;;;23.00;99.90;;;;;;494035;241;29310;-73
2022/06/17 10:11:47;;;;;;;4.10;1.30;;;23.10;99.90;;;;;;493993;241;29254;-72
2022/06/17 10:13:48;;;;;;;1.60;1.50;;;23.20;99.20;;;;;;494047;241;29254;-72
2022/06/17 10:20:29;;;;;;;1.60;1.50;;;23.60;99.80;;;;;;494065;241;28784;-72
2022/06/17 10:22:30;;;;;;;1.60;1.40;;;23.60;99.90;;;;;;494016;241;28907;-72
2022/06/17 10:24:31;;;;;;;1.67;1.40;;;23.80;99.90;;;;;;494021;241;28930;-72
2022/06/17 10:26:33;;;;;;;1.60;1.50;;;23.90;99.90;;;;;;493828;241;29300;-72
2022/06/17 10:28:34;;;;;;;1.80;1.70;;;23.90;99.10;;;;;;493899;241;29346;-76
2022/06/17 10:30:35;;;;;;;1.70;1.60;;;24.00;99.50;;;;;;493952;241;29380;-72
2022/06/17 10:32:36;;;;;;;1.50;1.50;;;24.00;99.60;;;;;;493944;241;28854;-73
2022/06/17 10:34:38;;;;;;;1.30;1.30;;;24.00;99.80;;;;;;493973;241;28785;-72
2022/06/17 10:36:39;;;;;;;2.00;1.30;;;24.10;97.20;;;;;;494041;241;28912;-72
2022/06/17 10:38:40;;;;;;;1.53;1.43;;;24.10;97.50;;;;;;493939;241;28928;-75
2022/06/17 10:40:41;;;;;;;1.50;1.40;;;24.10;98.00;;;;;;494001;241;28824;-72